VYYY/RGN METAR and TAF weather

Enter ICAO airport designator
Station Type Date Time Source
VYYY METAR 2021/09/20 05:00 UTC NOAA

VYYY 200500Z 26006KT 7000 BKN018 FEW025CB BKN100 30/27 Q1009


Station Type Date Time Source
VYYY Decoded METAR 2021/09/20 05:00 UTC NOAA

Yangon, Myanmar (VYYY) 16-46N 096-10E 15M
Sep 20, 2021 - 01:00 AM EDT / 2021.09.20 0500 UTC
Wind: from the W (260 degrees) at 7 MPH (6 KT):0
Visibility: 4 mile(s):0
Sky conditions: mostly cloudy
Weather: Cumulonimbus clouds observed
Temperature: 86 F (30 C)
Heat index: 101.8 F (38.8 C):1
Dew Point: 80 F (27 C)
Relative Humidity: 84%
Pressure (altimeter): 29.80 in. Hg (1009 hPa)
ob: VYYY 200500Z 26006KT 7000 BKN018 FEW025CB BKN100 30/27 Q1009
cycle: 5

Station Type Date Time Source
VYYY TAF 2021/09/20 00:59 UTC NOAA

TAF VYYY 192300Z 2000/2024 26006KT 7000 BKN018 FEW020CB BKN100
TEMPO 1900/1906 28003KT 5000 -RA
TEMPO 1906/1912 26008KT 4000 TSRA BKN015 FEW020CB OVC090

Example: see airport list